createdAt,value
2019-05-15T00:00:38.438Z,70.87
2019-05-15T00:03:04.323Z,71.18
2019-05-15T00:05:31.573Z,71.34
2019-05-15T00:07:59.314Z,71.53
2019-05-15T00:10:25.590Z,71.40
2019-05-15T00:12:51.761Z,71.26
2019-05-15T00:15:18.348Z,71.18
2019-05-15T00:17:44.782Z,71.19
2019-05-15T00:20:11.263Z,71.46
2019-05-15T00:22:38.829Z,71.25
2019-05-15T00:25:09.000Z,71.49
2019-05-15T00:27:34.826Z,71.70
2019-05-15T00:30:01.287Z,71.86
2019-05-15T00:32:28.271Z,72.07
2019-05-15T00:34:58.281Z,72.13
2019-05-15T00:37:24.801Z,72.06
2019-05-15T00:39:51.011Z,72.04
2019-05-15T00:42:19.021Z,71.93
2019-05-15T00:44:45.313Z,71.94
2019-05-15T00:47:11.439Z,72.11
2019-05-15T00:49:38.260Z,72.00
2019-05-15T00:52:04.654Z,71.93
2019-05-15T00:54:31.032Z,71.66
2019-05-15T00:56:57.975Z,71.34
2019-05-15T00:59:26.794Z,71.26
2019-05-15T01:01:52.483Z,71.44
2019-05-15T01:04:18.918Z,71.38
2019-05-15T01:06:45.146Z,71.68
2019-05-15T01:09:11.251Z,71.84
2019-05-15T01:11:38.160Z,72.10
2019-05-15T01:14:04.774Z,72.24
2019-05-15T01:16:30.971Z,72.34
2019-05-15T01:18:58.587Z,72.42
2019-05-15T01:21:27.902Z,71.96
2019-05-15T01:23:54.117Z,71.85
2019-05-15T01:26:20.336Z,71.97
2019-05-15T01:28:49.258Z,71.97
2019-05-15T01:31:14.775Z,71.82
2019-05-15T01:33:41.010Z,71.90
2019-05-15T01:36:08.527Z,72.15
2019-05-15T01:38:35.010Z,72.18
2019-05-15T01:41:01.146Z,72.36
2019-05-15T01:43:29.098Z,72.85
2019-05-15T01:45:55.367Z,73.11
2019-05-15T01:48:21.591Z,73.08
2019-05-15T01:50:49.276Z,73.12
2019-05-15T01:53:15.793Z,73.37
2019-05-15T01:55:41.922Z,73.66
2019-05-15T01:58:09.175Z,73.74
2019-05-15T02:00:35.787Z,73.99
2019-05-15T02:03:02.044Z,74.03
2019-05-15T02:05:28.378Z,74.33
2019-05-15T02:07:54.664Z,74.23
2019-05-15T02:10:21.018Z,74.46
2019-05-15T02:12:48.139Z,74.40
2019-05-15T02:15:14.722Z,74.38
2019-05-15T02:17:40.924Z,74.46
2019-05-15T02:20:08.303Z,74.59
2019-05-15T02:22:35.044Z,74.60
2019-05-15T02:25:01.331Z,74.54
2019-05-15T02:27:29.439Z,74.62
2019-05-15T02:30:13.030Z,74.61
2019-05-15T02:32:23.781Z,74.65
2019-05-15T02:34:50.269Z,74.62
2019-05-15T02:37:19.046Z,74.29
2019-05-15T02:39:44.631Z,74.22
2019-05-15T02:42:10.780Z,74.32
2019-05-15T02:44:39.930Z,74.46
2019-05-15T02:47:05.217Z,74.65
2019-05-15T02:49:31.388Z,74.61
2019-05-15T02:52:00.262Z,74.97
2019-05-15T02:54:25.673Z,74.97
2019-05-15T02:56:51.780Z,74.55
2019-05-15T02:59:19.534Z,74.52
2019-05-15T03:01:49.111Z,74.76
2019-05-15T03:04:14.491Z,74.85
2019-05-15T03:06:40.736Z,74.81
2019-05-15T03:09:09.532Z,74.73
2019-05-15T03:11:34.963Z,74.68
2019-05-15T03:14:01.226Z,74.52
2019-05-15T03:16:30.285Z,74.16
2019-05-15T03:18:59.557Z,73.71
2019-05-15T03:21:24.580Z,74.01
2019-05-15T03:23:51.074Z,73.57
2019-05-15T03:26:19.751Z,73.62
2019-05-15T03:28:45.522Z,73.92
2019-05-15T03:31:33.065Z,73.95
2019-05-15T03:33:45.745Z,73.84
2019-05-15T03:36:13.137Z,73.66
2019-05-15T03:38:39.330Z,73.65
2019-05-15T03:41:04.884Z,73.77
2019-05-15T03:43:31.291Z,73.52
2019-05-15T03:46:01.612Z,73.45
2019-05-15T03:48:28.846Z,73.39
2019-05-15T03:50:55.020Z,72.96
2019-05-15T03:53:21.255Z,73.06
2019-05-15T03:55:48.983Z,73.19
2019-05-15T03:58:15.432Z,73.21
2019-05-15T04:00:41.660Z,73.17
2019-05-15T04:03:11.006Z,72.89
2019-05-15T04:05:38.911Z,72.49
2019-05-15T04:08:04.297Z,72.48
2019-05-15T04:10:30.501Z,72.35
2019-05-15T04:12:59.888Z,72.19
2019-05-15T04:15:24.985Z,72.34
2019-05-15T04:17:51.199Z,72.21
2019-05-15T04:20:20.078Z,72.46
2019-05-15T04:22:48.996Z,72.51
2019-05-15T04:25:13.958Z,72.26
2019-05-15T04:27:41.509Z,71.96
2019-05-15T04:30:10.562Z,71.76
2019-05-15T04:32:39.546Z,71.46
2019-05-15T04:35:08.945Z,71.52
2019-05-15T04:37:35.022Z,71.58
2019-05-15T04:40:01.328Z,71.45
2019-05-15T04:42:29.973Z,71.30
2019-05-15T04:44:55.651Z,71.31
2019-05-15T04:47:21.893Z,71.15
2019-05-15T04:49:50.345Z,70.89
2019-05-15T04:52:19.351Z,70.90
2019-05-15T04:54:45.278Z,70.97
2019-05-15T04:57:11.456Z,70.50
2019-05-15T04:59:38.998Z,70.44
2019-05-15T05:02:26.347Z,70.45
2019-05-15T05:04:33.638Z,70.37
2019-05-15T05:06:59.863Z,70.04
2019-05-15T05:09:28.765Z,70.03
2019-05-15T05:11:54.285Z,69.75
2019-05-15T05:14:20.526Z,70.11
2019-05-15T05:16:48.971Z,70.01
2019-05-15T05:19:14.862Z,70.41
2019-05-15T05:21:41.103Z,70.32
2019-05-15T05:24:08.007Z,70.36
2019-05-15T05:26:34.546Z,70.09
2019-05-15T05:29:01.559Z,70.24
2019-05-15T05:31:29.586Z,70.25
2019-05-15T05:33:57.783Z,70.28
2019-05-15T05:36:24.170Z,70.28
2019-05-15T05:38:50.617Z,70.18
2019-05-15T05:41:18.830Z,70.27
2019-05-15T05:43:45.355Z,70.13
2019-05-15T05:46:11.472Z,70.26
2019-05-15T05:48:38.479Z,70.14
2019-05-15T05:51:04.829Z,70.03
2019-05-15T05:53:31.058Z,70.14
2019-05-15T05:55:58.082Z,69.26
2019-05-15T05:58:24.538Z,69.13
2019-05-15T06:00:50.943Z,68.97
2019-05-15T06:03:19.623Z,69.49
2019-05-15T06:05:45.277Z,68.99
2019-05-15T06:08:11.651Z,68.72
2019-05-15T06:10:38.752Z,68.57
2019-05-15T06:13:08.518Z,68.25
2019-05-15T06:15:33.967Z,68.22
2019-05-15T06:18:00.209Z,68.14
2019-05-15T06:20:28.305Z,68.14
2019-05-15T06:22:54.480Z,67.24
2019-05-15T06:25:20.914Z,66.91
2019-05-15T06:27:48.142Z,66.90
2019-05-15T06:30:25.993Z,67.10
2019-05-15T06:32:43.365Z,66.82
2019-05-15T06:35:10.163Z,66.75
2019-05-15T06:37:36.413Z,66.76
2019-05-15T06:40:03.586Z,66.68
2019-05-15T06:42:29.741Z,66.23
2019-05-15T06:44:55.968Z,65.71
2019-05-15T06:47:22.126Z,65.85
2019-05-15T06:49:48.751Z,65.18
2019-05-15T06:52:15.059Z,64.76
2019-05-15T06:54:41.225Z,64.64
2019-05-15T06:57:09.092Z,64.68
2019-05-15T06:59:35.635Z,64.47
2019-05-15T07:02:01.750Z,64.58
2019-05-15T07:04:28.787Z,64.33
2019-05-15T07:06:55.012Z,64.17
2019-05-15T07:09:21.247Z,64.30
2019-05-15T07:11:48.285Z,64.26
2019-05-15T07:14:14.877Z,63.30
2019-05-15T07:16:41.031Z,63.12
2019-05-15T07:19:08.302Z,63.36
2019-05-15T07:21:34.673Z,63.17
2019-05-15T07:24:00.883Z,62.66
2019-05-15T07:26:29.015Z,63.35
2019-05-15T07:28:55.194Z,63.37
2019-05-15T07:31:21.379Z,62.76
2019-05-15T07:33:49.171Z,62.92
2019-05-15T07:36:15.649Z,62.35
2019-05-15T07:38:41.815Z,61.98
2019-05-15T07:41:10.135Z,62.12
2019-05-15T07:43:38.319Z,62.44
2019-05-15T07:46:04.546Z,62.13
2019-05-15T07:48:30.867Z,62.50
2019-05-15T07:50:58.991Z,61.63
2019-05-15T07:53:25.150Z,62.10
2019-05-15T07:55:51.604Z,61.90
2019-05-15T07:58:21.515Z,61.83
2019-05-15T08:00:49.276Z,60.49
2019-05-15T08:03:15.405Z,60.84
2019-05-15T08:05:55.019Z,60.74
2019-05-15T08:08:09.896Z,60.60
2019-05-15T08:10:36.288Z,60.39
2019-05-15T08:13:02.658Z,60.21
2019-05-15T08:15:29.067Z,59.48
2019-05-15T08:18:07.627Z,58.61
2019-05-15T08:20:24.836Z,58.59
2019-05-15T08:22:51.036Z,59.12
2019-05-15T08:25:31.095Z,59.08
2019-05-15T08:27:48.419Z,58.68
2019-05-15T08:30:18.197Z,58.88
2019-05-15T08:32:44.001Z,58.59
2019-05-15T08:35:12.814Z,58.20
2019-05-15T08:37:39.041Z,57.90
2019-05-15T08:40:08.406Z,58.04
2019-05-15T08:42:34.189Z,57.54
2019-05-15T08:45:00.742Z,56.82
2019-05-15T08:47:29.492Z,56.44
2019-05-15T08:49:55.180Z,56.55
2019-05-15T08:52:21.474Z,56.03
2019-05-15T08:54:48.579Z,55.75
2019-05-15T08:57:20.077Z,55.58
2019-05-15T08:59:44.452Z,55.68
2019-05-15T09:02:10.796Z,55.36
2019-05-15T09:04:38.648Z,55.03
2019-05-15T09:07:05.367Z,55.20
2019-05-15T09:09:31.618Z,55.92
2019-05-15T09:11:58.509Z,55.31
2019-05-15T09:14:24.755Z,55.29
2019-05-15T09:16:50.981Z,54.88
2019-05-15T09:19:18.500Z,54.51
2019-05-15T09:21:44.805Z,53.92
2019-05-15T09:24:10.974Z,54.46
2019-05-15T09:26:40.477Z,54.49
2019-05-15T09:29:09.333Z,54.47
2019-05-15T09:31:35.376Z,54.60
2019-05-15T09:34:01.552Z,54.01
2019-05-15T09:36:28.926Z,53.90
2019-05-15T09:38:55.414Z,53.43
2019-05-15T09:41:21.699Z,53.61
2019-05-15T09:43:48.656Z,53.38
2019-05-15T09:46:15.087Z,53.93
2019-05-15T09:48:41.363Z,53.98
2019-05-15T09:51:09.300Z,53.71
2019-05-15T09:53:35.917Z,55.03
2019-05-15T09:56:02.334Z,55.31
2019-05-15T09:58:30.227Z,55.65
2019-05-15T10:00:56.612Z,55.60
2019-05-15T10:03:22.786Z,55.94
2019-05-15T10:05:49.187Z,56.30
2019-05-15T10:08:15.567Z,56.75
2019-05-15T10:10:41.799Z,57.30
2019-05-15T10:13:09.039Z,57.38
2019-05-15T10:15:35.440Z,57.38
2019-05-15T10:18:01.661Z,58.77
2019-05-15T10:20:29.134Z,59.29
2019-05-15T10:22:55.506Z,59.65
2019-05-15T10:25:21.916Z,60.00
2019-05-15T10:27:48.845Z,60.12
2019-05-15T10:30:15.554Z,60.04
2019-05-15T10:32:41.898Z,60.70
2019-05-15T10:35:24.100Z,61.08
2019-05-15T10:37:39.025Z,61.17
2019-05-15T10:40:09.261Z,61.16
2019-05-15T10:42:39.735Z,61.86
2019-05-15T10:45:08.359Z,62.67
2019-05-15T10:47:38.532Z,62.66
2019-05-15T10:50:07.991Z,62.73
2019-05-15T10:52:34.304Z,63.36
2019-05-15T10:55:01.018Z,63.39
2019-05-15T10:57:28.111Z,63.56
2019-05-15T10:59:54.641Z,64.54
2019-05-15T11:02:20.847Z,64.88
2019-05-15T11:04:48.691Z,64.76
2019-05-15T11:07:14.996Z,64.71
2019-05-15T11:09:41.481Z,65.13
2019-05-15T11:12:08.696Z,65.75
2019-05-15T11:14:35.074Z,66.03
2019-05-15T11:17:01.332Z,66.56
2019-05-15T11:19:35.479Z,67.19
2019-05-15T11:21:58.255Z,67.20
2019-05-15T11:24:23.937Z,67.85
2019-05-15T11:26:50.277Z,67.95
2019-05-15T11:29:16.519Z,67.99
2019-05-15T11:31:42.875Z,68.22
2019-05-15T11:34:09.456Z,68.77
2019-05-15T11:36:38.499Z,69.06
2019-05-15T11:39:05.270Z,68.74
2019-05-15T11:41:31.546Z,68.69
2019-05-15T11:43:57.821Z,68.97
2019-05-15T11:46:25.845Z,69.09
2019-05-15T11:48:53.275Z,69.22
2019-05-15T11:51:19.516Z,69.16
2019-05-15T11:53:45.639Z,69.25
2019-05-15T11:56:12.071Z,68.99
2019-05-15T11:58:38.952Z,69.44
2019-05-15T12:01:05.610Z,69.63
2019-05-15T12:03:31.750Z,69.47
2019-05-15T12:06:02.903Z,69.43
2019-05-15T12:08:26.032Z,69.64
2019-05-15T12:10:52.335Z,69.26
2019-05-15T12:13:19.075Z,69.35
2019-05-15T12:15:45.364Z,69.21
2019-05-15T12:18:11.617Z,68.82
2019-05-15T12:20:39.017Z,69.13
2019-05-15T12:23:05.466Z,69.60
2019-05-15T12:25:32.094Z,69.42
2019-05-15T12:27:59.612Z,69.55
2019-05-15T12:30:29.425Z,69.83
2019-05-15T12:32:54.395Z,69.76
2019-05-15T12:35:20.740Z,69.81
2019-05-15T12:37:47.051Z,70.15
2019-05-15T13:00:07.617Z,70.36
2019-05-15T13:02:34.758Z,70.39
2019-05-15T13:05:01.091Z,70.71
2019-05-15T13:07:28.558Z,70.92
2019-05-15T13:09:54.901Z,70.87
2019-05-15T13:12:21.037Z,70.99
2019-05-15T13:14:48.348Z,70.85
2019-05-15T13:17:14.685Z,70.81
2019-05-15T13:19:40.924Z,70.97
2019-05-15T13:22:17.338Z,70.78
2019-05-15T13:24:35.182Z,71.02
2019-05-15T13:27:01.461Z,70.87
2019-05-15T13:29:28.967Z,70.97
2019-05-15T13:31:55.369Z,71.11
2019-05-15T13:34:21.558Z,71.06
2019-05-15T13:36:48.626Z,71.36
2019-05-15T13:39:14.977Z,71.34
2019-05-15T13:41:41.090Z,71.39
2019-05-15T13:44:08.985Z,71.45
2019-05-15T13:46:37.940Z,71.53
2019-05-15T13:49:03.642Z,71.56
2019-05-15T13:51:29.802Z,71.58
2019-05-15T13:53:56.119Z,71.74
2019-05-15T13:56:22.216Z,71.46
2019-05-15T13:58:48.450Z,71.48
2019-05-15T14:01:14.569Z,71.58
2019-05-15T14:03:40.803Z,71.56
2019-05-15T14:06:09.364Z,71.65
2019-05-15T14:08:38.194Z,71.30
2019-05-15T14:11:03.752Z,70.90
2019-05-15T14:13:29.962Z,71.02
2019-05-15T14:15:58.206Z,70.93
2019-05-15T14:18:24.300Z,70.60
2019-05-15T14:20:51.579Z,70.35
2019-05-15T14:23:18.598Z,70.38
2019-05-15T14:25:48.072Z,70.13
2019-05-15T14:28:13.833Z,69.79
2019-05-15T14:30:39.926Z,69.69
2019-05-15T14:33:08.476Z,69.77
2019-05-15T14:35:34.304Z,69.71
2019-05-15T14:38:06.027Z,69.84
2019-05-15T14:40:28.657Z,69.86
2019-05-15T14:42:54.900Z,69.73
2019-05-15T14:45:21.180Z,69.72
2019-05-15T14:47:49.228Z,69.95
2019-05-15T14:50:15.905Z,70.01
2019-05-15T14:52:42.373Z,70.18
2019-05-15T14:55:10.796Z,69.93
2019-05-15T14:57:39.143Z,70.04
2019-05-15T15:00:05.694Z,69.88
2019-05-15T15:02:32.025Z,69.86
2019-05-15T15:04:59.460Z,69.56
2019-05-15T15:07:28.193Z,69.66
2019-05-15T15:09:53.889Z,70.09
2019-05-15T15:12:20.305Z,70.27
2019-05-15T15:14:48.591Z,70.33
2019-05-15T15:17:14.647Z,70.38
2019-05-15T15:19:40.863Z,70.34
2019-05-15T15:22:08.671Z,70.23
2019-05-15T15:24:35.042Z,70.50
2019-05-15T15:27:01.372Z,70.51
2019-05-15T15:29:28.214Z,70.17
2019-05-15T15:31:54.575Z,70.00
2019-05-15T15:34:20.689Z,70.02
2019-05-15T15:36:48.437Z,70.21
2019-05-15T15:39:14.726Z,70.52
2019-05-15T15:41:41.317Z,70.45
2019-05-15T15:44:08.588Z,70.45
2019-05-15T15:46:35.095Z,70.47
2019-05-15T15:49:01.535Z,70.54
2019-05-15T15:51:28.564Z,70.72
2019-05-15T15:53:55.346Z,70.82
2019-05-15T15:56:21.508Z,70.74
2019-05-15T15:58:48.890Z,70.73
2019-05-15T16:01:18.575Z,70.82
2019-05-15T16:03:44.899Z,70.86
2019-05-15T16:06:11.073Z,70.79
2019-05-15T16:08:51.294Z,71.12
2019-05-15T16:11:07.946Z,71.00
2019-05-15T16:13:33.888Z,70.95
2019-05-15T16:16:00.077Z,71.00
2019-05-15T16:18:28.793Z,71.04
2019-05-15T16:20:54.358Z,71.20
2019-05-15T16:23:20.541Z,71.35
2019-05-15T16:25:48.818Z,71.20
2019-05-15T16:28:14.803Z,71.26
2019-05-15T16:30:51.054Z,71.19
2019-05-15T16:33:09.894Z,71.36
2019-05-15T16:35:38.242Z,71.44
2019-05-15T16:38:11.273Z,71.55
2019-05-15T16:40:38.482Z,71.71
2019-05-15T16:43:04.721Z,71.76
2019-05-15T16:45:31.178Z,72.06
2019-05-15T16:47:58.673Z,71.90
2019-05-15T16:50:25.217Z,71.92
2019-05-15T16:52:51.398Z,71.92
2019-05-15T16:55:17.681Z,71.91
2019-05-15T16:57:44.203Z,71.91
2019-05-15T17:00:11.505Z,72.13
2019-05-15T17:02:39.161Z,72.18
2019-05-15T17:05:07.452Z,72.14
2019-05-15T17:07:33.908Z,72.39
2019-05-15T17:10:00.178Z,72.33
2019-05-15T17:12:27.807Z,72.39
2019-05-15T17:14:54.111Z,72.52
2019-05-15T17:17:20.270Z,72.32
2019-05-15T17:19:48.454Z,72.50
2019-05-15T17:22:14.723Z,72.49
2019-05-15T17:24:41.295Z,72.42
2019-05-15T17:27:10.256Z,72.77
2019-05-15T17:29:38.363Z,72.83
2019-05-15T17:32:04.375Z,72.72
2019-05-15T17:34:30.748Z,72.66
2019-05-15T17:36:58.281Z,72.88
2019-05-15T17:39:34.726Z,73.04
2019-05-15T17:41:52.766Z,72.81
2019-05-15T17:44:19.350Z,73.02
2019-05-15T17:46:45.597Z,73.20
2019-05-15T17:49:15.443Z,73.26
2019-05-15T17:51:40.050Z,72.90
2019-05-15T17:54:08.731Z,72.95
2019-05-15T17:56:34.335Z,73.00
2019-05-15T17:59:00.796Z,72.96
2019-05-15T18:01:28.255Z,72.85
2019-05-15T18:03:55.779Z,73.02
2019-05-15T18:06:22.168Z,73.65
2019-05-15T18:08:48.803Z,73.57
2019-05-15T18:11:15.277Z,73.59
2019-05-15T18:13:41.545Z,73.54
2019-05-15T18:16:13.243Z,73.60
2019-05-15T18:18:38.293Z,73.41
2019-05-15T18:21:04.029Z,73.65
2019-05-15T18:23:30.249Z,73.80
2019-05-15T18:25:58.480Z,73.96
2019-05-15T18:28:25.138Z,73.79
2019-05-15T18:30:51.535Z,74.04
2019-05-15T18:33:18.509Z,74.17
2019-05-15T18:35:45.613Z,74.25
2019-05-15T18:38:11.829Z,74.54
2019-05-15T18:40:38.497Z,74.66
2019-05-15T18:43:05.941Z,74.68
2019-05-15T18:45:32.357Z,74.73
2019-05-15T18:47:58.976Z,74.85
2019-05-15T18:50:25.271Z,74.91
2019-05-15T18:52:51.444Z,74.93
2019-05-15T18:55:18.469Z,75.04
2019-05-15T18:57:44.785Z,74.98
2019-05-15T19:00:13.551Z,75.33
2019-05-15T19:02:39.713Z,75.47
2019-05-15T19:05:08.204Z,75.60
2019-05-15T19:07:34.670Z,75.77
2019-05-15T19:10:01.000Z,75.60
2019-05-15T19:12:28.299Z,75.96
2019-05-15T19:14:54.536Z,75.54
2019-05-15T19:17:20.810Z,75.86
2019-05-15T19:19:48.183Z,75.87
2019-05-15T19:22:14.650Z,76.46
2019-05-15T19:24:40.779Z,76.20
2019-05-15T19:27:07.982Z,76.15
2019-05-15T19:29:34.223Z,75.75
2019-05-15T19:32:00.643Z,75.83
2019-05-15T19:34:28.131Z,76.14
2019-05-15T21:00:00.207Z,82.41
2019-05-15T21:02:28.835Z,82.26
2019-05-15T21:04:55.161Z,82.12
2019-05-15T21:07:34.993Z,81.63
2019-05-15T21:09:49.367Z,81.09
2019-05-15T21:12:17.925Z,80.87
2019-05-15T21:14:44.412Z,80.77
2019-05-15T21:17:10.642Z,80.39
2019-05-15T21:19:38.598Z,80.25
2019-05-15T21:22:04.956Z,80.30
2019-05-15T21:24:31.182Z,80.20
2019-05-15T21:26:58.140Z,80.16
2019-05-15T21:29:24.632Z,79.81
2019-05-15T21:31:50.724Z,79.76
2019-05-15T21:34:32.195Z,79.61
2019-05-15T21:36:45.171Z,79.72
2019-05-15T21:39:11.487Z,79.82
2019-05-15T21:41:38.782Z,79.83
2019-05-15T21:44:07.964Z,79.99
2019-05-15T21:46:35.062Z,79.93
2019-05-15T21:49:01.423Z,79.79
2019-05-15T21:51:28.139Z,79.88
2019-05-15T21:53:54.576Z,80.02
2019-05-15T21:56:20.693Z,79.84
2019-05-15T21:58:48.343Z,79.77
2019-05-15T22:01:15.606Z,79.91
2019-05-15T22:03:41.894Z,80.00
2019-05-15T22:06:08.765Z,79.87
2019-05-15T22:08:38.296Z,79.79
2019-05-15T22:11:04.606Z,79.55
2019-05-15T22:13:31.616Z,79.30
2019-05-15T22:15:59.336Z,79.34
2019-05-15T22:18:27.938Z,79.17
2019-05-15T22:20:54.142Z,79.34
2019-05-15T22:23:20.710Z,79.35
2019-05-15T22:25:49.570Z,79.37
2019-05-15T22:28:15.120Z,79.44
2019-05-15T22:30:41.324Z,79.11
2019-05-15T22:33:08.764Z,79.05
2019-05-15T22:35:35.151Z,78.99
2019-05-15T22:38:01.307Z,79.11
2019-05-15T22:40:29.068Z,79.07
2019-05-15T22:42:55.414Z,79.15
2019-05-15T22:45:21.835Z,79.16
2019-05-15T22:47:48.392Z,79.45
2019-05-15T22:50:15.288Z,79.45
2019-05-15T22:52:41.536Z,79.31
2019-05-15T22:55:08.011Z,79.26
2019-05-15T22:57:34.321Z,79.25
2019-05-15T23:00:00.408Z,79.05
2019-05-15T23:02:26.626Z,79.07
2019-05-15T23:04:52.791Z,78.95
2019-05-15T23:07:19.092Z,78.91
2019-05-15T23:09:45.518Z,78.88
2019-05-15T23:12:12.140Z,78.82
2019-05-15T23:14:38.261Z,78.62
2019-05-15T23:17:04.512Z,78.57
2019-05-15T23:19:30.621Z,78.24
2019-05-15T23:21:58.932Z,78.20
2019-05-15T23:24:24.839Z,78.20
2019-05-15T23:26:51.034Z,78.15
2019-05-15T23:29:17.123Z,77.78
2019-05-15T23:31:43.337Z,77.70
2019-05-15T23:34:09.561Z,77.59
2019-05-15T23:36:37.778Z,77.58
2019-05-15T23:39:07.809Z,77.87
2019-05-15T23:41:33.908Z,78.20
2019-05-15T23:44:00.045Z,77.98
2019-05-15T23:46:26.199Z,77.89
2019-05-15T23:48:52.341Z,77.87
2019-05-15T23:51:19.124Z,77.75
2019-05-15T23:53:45.376Z,77.72
2019-05-15T23:56:11.549Z,77.76
2019-05-15T23:58:38.121Z,77.87
